الصفحة الرئيسية
METAR-TAF:

METAR-TAF

مطار :

كيميروفو, روسيا

دائرة عرض: 55-19-48N, خط طول: 086-04-48E, ارتفاع: 260 متر

مراقبة الطقس الحالي

تاريخ ووقت الإصدار 35 دقيقة قبل الساعة 11:00UTC
ريح 8 عقدة من الجنوب/الجنوب الغربي
درجة الحرارة 7°درجة مئوية
الرطوبة 49%
ضغط 1017 hPa
الرؤية 10 كم أو أكثر
غيوم متفرقة على ارتفاع 3500 قدم, مزنة ركامية.

METAR: UNEE 241100Z 21004MPS 9999 SCT035CB 07/M03 Q1017 R23/CLRD60 NOSIG RMK QFE740

زمن: 18:35 (11:35 UTC)

توقعات

تاريخ ووقت الإصدار 35 دقيقة قبل الساعة 11:00UTC
التوقعات صالحة من24 الساعة 12 UTC إلى 25 الساعة 12 UTC
ريح 6 عقدة من الجنوب/الجنوب الغربي تتزايد حتى 16 عقدة
الرؤية 10 كم أو أكثر
غيوم مفككة على ارتفاع 2000 قدم, مزنة ركامية.
مؤقت
من 24 الساعة 22 UTC إلى 25 الساعة 12 UTC
ريح 16 عقدة من الجنوب تتزايد حتى 25 عقدة
الرؤية: 4000 متر
ملبد بالغيوم على ارتفاع 1100 قدم, مزنة ركامية.
زخات من الأمطار الخفيفة

TAF: UNEE 241100Z 2412/2512 20003G08MPS 9999 BKN020CB TEMPO 2422/2512 17008G13MPS 4000 -SHRA OVC011CB

أرصاد الطقس والتوقعات من أكثر من 4000 مطار (تقارير الطقس للمطار METAR والتنبؤ بالطقس بالمطارTAF).

المحطات المتاحة هي النقط الصفراء والحمراء على الخريطة.

حرك المؤشر فوق النقطة لمعرفة اسم المحطة.

ثم انقر لمعرفة أرصاد وتوقعات الطقس.

لتغيير الخارطة: اضغط على الأزرار الخضراء مع رمز الصليب الأسود للتكبير. على الزر الأخضر مع شرطة للتصغير، أو على الأسهم الخضراء للخرائط المجاورة.


METAR-TAF: